map of EGXE home
EGXE - Airport
Location
City:  Leeming, Yorkshire, England, United Kingdom
ICAO:EGXE

Details
Type:Airport (Aerodrome, Airfield)
Use:Military
Latitude:5417'33"N (54.292383)
Longitude:132'07"W (-1.535399)
Datum:WGS 1984
Elevation:132 ft (40 m)
Variation:1.25W (WMM2015 magnetic declination)
0.16 annual change
Runways:1
Longest:7520 × 150 ft (2292 × 45.5 m), paved

Time
Time Zone:UTC+0 (DST+1)
Local Time:

Weather
METAR:EGXE 261450Z 26020KT 9999 SCT042 BKN050 12/04 Q1010 BLU NOSIG

Related Locations
Nearby:
Farthest:NZBA: 11756 mi / 18920 km
Balclutha, OTA, NZ

Find:

   beyond  
but within

Other Information
Maps:
NOTAMs:
Links:
Sources:

  
flag of United Kingdom
flag of England
  

Airport Diagram

Airport diagram for EGXE

Larger airport diagram (OBSOLETE) from NGA

Sectional Chart

Flight Planning
at skyvector.com

Satellite Image

Google Maps Satellite view

 

Copyright © 2004-2018 Karl L. Swartz. All rights reserved.
The Great Circle Mapper name and logo are trademarks of the Great Circle Mapper.
All other trademarks mentioned herein belong to their respective owners.
Please see credits for attibutions and further copyright information.

  Follow gcmap on Facebook Follow gcmap on Twitter Follow gcmap on Google+ GCmap on LinkedIn

hCard Microformat

Geo Microformat